Impacts TAF Board
For situational awareness. Not to be used for flight planning purposes.
IDs:

EDDK - Koln-Bonn Arpt, NT, DE

Issued at 1700 UTC 28 Nov 2022
Updated at 1805 UTC 28 Nov 2022
Potential Impact None Slight Moderate High
Time1750Z 28/19Z 28/20Z 28/21Z 28/22Z 28/23Z 29/00Z 29/01Z 29/02Z 29/03Z 29/04Z 29/05Z 29/06Z 29/07Z>>
Type OBS PRVL
  [TEMP]  
PRVL
  [TEMP]  
PRVL
  [TEMP]  
PRVL
  [TEMP]  
PRVL
  [TEMP]  
PRVL
  [TEMP]  
PRVL
  [TEMP]  
PRVL
  [TEMP]  
PRVL
  [TEMP]  
PRVL
  [TEMP]  
PRVL
  [TEMP]  
PRVL
  [TEMP]  
PRVL
  [TEMP]  
VIS >6 >6
  [1.86]  
>6
  [1.86]  
>6
  [1.86]  
>6
  [1.86]  
>6
  [1.86]  
>6
  [1.86]  
>6
  [1.86]  
>6
  [1.86]  
>6
  [1.86]  
>6
  [1.86]  
>6
  [1.86]  
>6
  [1.86]  
>6
  [1.86]  
CIG -- 10
  [4]  
10
  [4]  
10
  [4]  
10
  [4]  
10
  [4]  
10
  [4]  
10
  [4]  
10
  [4]  
10
  [4]  
10
  [4]  
10
  [4]  
10
  [4]  
10
  [4]  
Cover SCT BKN
  [OVC]  
BKN
  [OVC]  
BKN
  [OVC]  
BKN
  [OVC]  
BKN
  [OVC]  
BKN
  [OVC]  
BKN
  [OVC]  
BKN
  [OVC]  
BKN
  [OVC]  
BKN
  [OVC]  
BKN
  [OVC]  
BKN
  [OVC]  
BKN
  [OVC]  
FltCat VFR MVFR
  [LIFR]  
MVFR
  [LIFR]  
MVFR
  [LIFR]  
MVFR
  [LIFR]  
MVFR
  [LIFR]  
MVFR
  [LIFR]  
MVFR
  [LIFR]  
MVFR
  [LIFR]  
MVFR
  [LIFR]  
MVFR
  [LIFR]  
MVFR
  [LIFR]  
MVFR
  [LIFR]  
MVFR
  [LIFR]  
WX -- --
  [-RA -DZ BR]  
--
  [-RA -DZ BR]  
--
  [-RA -DZ BR]  
--
  [-RA -DZ BR]  
--
  [-RA -DZ BR]  
--
  [-RA -DZ BR]  
--
  [-RA -DZ BR]  
--
  [-RA -DZ BR]  
--
  [-RA -DZ BR]  
--
  [-RA -DZ BR]  
--
  [-RA -DZ BR]  
--
  [-RA -DZ BR]  
--
  [-RA -DZ BR]  
WDir VRB VRB
[VRB]
VRB
[VRB]
VRB
[VRB]
VRB
[VRB]
VRB
[VRB]
VRB
[VRB]
VRB
[VRB]
VRB
[VRB]
VRB
[VRB]
VRB
[VRB]
VRB
[VRB]
VRB
[VRB]
VRB
[VRB]
WSpd 1 3
  [3]  
3
  [3]  
3
  [3]  
3
  [3]  
3
  [3]  
3
  [3]  
3
  [3]  
3
  [3]  
3
  [3]  
3
  [3]  
3
  [3]  
3
  [3]  
3
  [3]  
WGst -- --
  [--]  
--
  [--]  
--
  [--]  
--
  [--]  
--
  [--]  
--
  [--]  
--
  [--]  
--
  [--]  
--
  [--]  
--
  [--]  
--
  [--]  
--
  [--]  
--
  [--]  
WSHgt -- --
[--]
--
[--]
--
[--]
--
[--]
--
[--]
--
[--]
--
[--]
--
[--]
--
[--]
--
[--]
--
[--]
--
[--]
--
[--]
WSDir -- --
[--]
--
[--]
--
[--]
--
[--]
--
[--]
--
[--]
--
[--]
--
[--]
--
[--]
--
[--]
--
[--]
--
[--]
--
[--]
WSSpd -- --
[--]
--
[--]
--
[--]
--
[--]
--
[--]
--
[--]
--
[--]
--
[--]
--
[--]
--
[--]
--
[--]
--
[--]
--
[--]
Raw TAF
TAF EDDK 281700Z 2818/2924 VRB03KT 9999 BKN010
  TEMPO 2818/2913 3000 -RADZ BR OVC004
  TEMPO 2913/2923 SCT010 OVC020


Raw METAR
EDDK 281750Z AUTO VRB01KT 9999 SCT011 07/07 Q1012 TEMPO 3000 -RADZ BKN008
EDDK 281720Z AUTO VRB02KT 9999 SCT010 BKN017 07/07 Q1012 TEMPO 3000 -RADZ BKN008
EDDK 281650Z AUTO VRB01KT 9999 BKN009 BKN017 BKN025 07/07 Q1012 TEMPO 3000 -RADZ
EDDK 281620Z AUTO 08002KT 9999 BKN010 07/07 Q1012 TEMPO 3000 -RADZ BKN005
EDDK 281550Z AUTO 09003KT 040V120 9999 -DZ BKN010 BKN018 07/07 Q1012 TEMPO 3000 -RADZ BKN005

METAR Board
For situational awareness. Not to be used for flight planning purposes.